Terminal Aerodrome Forecast
Issued by NWS Mt. Holly, NJ

Home | Current Version | Previous Version | Text Only | Print | Product List | Glossary On
Versions: 1 2 3 4 5 6 7 8 9 10 11 12 13 14 15 16 17 18 19 20 21 22 23 24 25 26 27 28 29 30 31 32 33 34 35 36 37 38 39 40 41 42 43 44 45 46 47 48 49 50
000
FTAK31 PANC 262101 AAB
TAFABE
TAF AMD
PABE 262101Z 2621/2718 20015G25KT P6SM -SHRASN SCT020 OVC040
      TEMPO 2621/2624 2SM -SHSN BKN015
     FM270200 20020G30KT 6SM -SHSN BR SCT007 BKN015 OVC025
     FM270600 17015G25KT 4SM -SN BR SCT003 BKN007 OVC015
     FM271200 21015KT 3SM -SN BR BKN003 OVC007=

USA.gov is the U.S. government's official web portal to all federal, state and local government web resources and services.